Time;durP1;ratioP1;P1;durP2;ratioP2;P2;SDS_P1;SDS_P2;PMS_P1;PMS_P2;Temp;Humidity;BMP_temperature;BMP_pressure;BME280_temperature;BME280_humidity;BME280_pressure;Samples;Min_cycle;Max_cycle;Signal;HPM_P1;HPM_P2
2023/06/22 00:00:11;;;;;;;5.93;4.95;;;;;;;24.79;49.04;99764.78;10354490;28;20612;-71
2023/06/22 00:05:14;;;;;;;6.38;5.22;;;;;;;22.20;54.08;99823.81;10356945;28;20604;-70
2023/06/22 00:10:15;;;;;;;7.93;5.45;;;;;;;21.82;55.27;99992.63;10362302;28;20209;-70
2023/06/22 00:15:17;;;;;;;6.32;5.60;;;;;;;22.87;54.51;100049.56;10363711;28;20213;-71
2023/06/22 00:20:19;;;;;;;10.05;6.63;;;;;;;23.82;53.87;99821.25;10363184;28;20263;-71
2023/06/22 00:25:21;;;;;;;10.48;7.32;;;;;;;24.21;52.74;99852.69;10364825;28;20824;-70
2023/06/22 00:30:23;;;;;;;9.70;6.80;;;;;;;23.01;55.41;99839.00;10366047;28;20205;-71
2023/06/22 00:35:28;;;;;;;8.13;6.72;;;;;;;20.56;60.90;99829.06;10367069;28;20221;-70
2023/06/22 00:40:32;;;;;;;9.25;7.57;;;;;;;21.65;58.50;99787.66;10364885;28;20745;-70
2023/06/22 00:45:34;;;;;;;7.95;7.03;;;;;;;21.41;58.70;99835.06;10366453;28;20229;-70
2023/06/22 00:50:36;;;;;;;9.32;7.05;;;;;;;21.05;59.36;99841.97;10359668;28;20267;-71
2023/06/22 00:55:43;;;;;;;9.82;7.00;;;;;;;19.63;61.82;99853.88;10360838;28;20230;-70
2023/06/22 01:00:45;;;;;;;7.38;6.65;;;;;;;21.32;58.50;99836.56;10361271;28;20623;-70
2023/06/22 01:05:49;;;;;;;7.93;6.90;;;;;;;22.20;56.27;99840.16;10368310;28;20271;-70
2023/06/22 01:10:57;;;;;;;7.45;6.65;;;;;;;21.78;56.60;99849.88;10363636;28;20213;-70
2023/06/22 01:16:15;;;;;;;8.63;7.00;;;;;;;22.07;55.85;99842.25;10365652;28;20261;-71
2023/06/22 01:21:20;;;;;;;7.07;6.25;;;;;;;24.05;52.01;99838.19;10365178;28;20216;-72
2023/06/22 01:26:45;;;;;;;8.25;5.70;;;;;;;24.31;51.38;99839.84;10361654;28;20291;-70
2023/06/22 01:31:49;;;;;;;7.97;6.13;;;;;;;23.36;53.71;99856.63;10360158;28;20677;-71
2023/06/22 01:36:52;;;;;;;10.40;6.28;;;;;;;22.90;53.04;99879.88;10363552;28;20248;-70
2023/06/22 01:41:55;;;;;;;8.48;6.95;;;;;;;21.82;55.95;99870.06;10360219;28;20921;-70
2023/06/22 01:46:57;;;;;;;9.93;7.70;;;;;;;21.55;57.69;99851.81;10369869;28;20264;-70
2023/06/22 01:51:59;;;;;;;8.43;7.53;;;;;;;21.79;56.74;99833.25;10361763;28;20209;-71
2023/06/22 01:57:01;;;;;;;8.13;7.32;;;;;;;24.05;52.57;99803.47;10358839;28;20229;-70
2023/06/22 02:02:12;;;;;;;9.60;7.43;;;;;;;24.93;50.08;99826.00;10359372;28;20244;-70
2023/06/22 02:07:17;;;;;;;8.45;7.30;;;;;;;21.75;56.47;99869.44;10361185;28;20240;-71
2023/06/22 02:12:24;;;;;;;9.55;7.22;;;;;;;23.66;53.09;99817.66;10360746;28;20206;-70
2023/06/22 02:17:26;;;;;;;8.63;7.70;;;;;;;22.23;55.00;99853.25;10361756;28;20232;-70
2023/06/22 02:22:28;;;;;;;8.60;7.10;;;;;;;22.77;53.64;99820.34;10363985;28;20213;-70
2023/06/22 02:27:30;;;;;;;9.55;7.82;;;;;;;23.93;51.75;99806.47;10363358;28;20229;-70
2023/06/22 02:32:34;;;;;;;8.88;7.88;;;;;;;23.54;52.73;99790.59;10359409;28;20947;-67
2023/06/22 02:37:41;;;;;;;9.50;7.53;;;;;;;24.49;50.47;99786.44;10366598;28;20225;-67
2023/06/22 02:42:43;;;;;;;9.13;8.10;;;;;;;23.16;53.41;99794.63;10357686;28;20696;-67
2023/06/22 02:47:45;;;;;;;9.32;8.32;;;;;;;21.24;56.44;99828.88;10355341;28;20782;-67
2023/06/22 02:52:47;;;;;;;8.88;7.97;;;;;;;22.41;54.16;99803.78;10360758;28;20587;-67
2023/06/22 02:57:52;;;;;;;9.02;8.13;;;;;;;23.41;52.94;99770.09;10359851;28;20228;-67
2023/06/22 03:02:54;;;;;;;9.50;8.00;;;;;;;24.16;51.36;99761.41;10359808;28;20332;-67
2023/06/22 03:07:56;;;;;;;9.85;7.93;;;;;;;24.04;51.88;99760.00;10359504;28;20608;-67
2023/06/22 03:12:58;;;;;;;11.77;7.93;;;;;;;22.95;52.03;99823.72;10359602;28;20210;-67
2023/06/22 03:17:59;;;;;;;9.75;8.75;;;;;;;21.47;55.78;99830.50;10359256;28;20264;-68
2023/06/22 03:23:01;;;;;;;10.80;8.63;;;;;;;21.57;56.56;99819.69;10363253;28;20589;-67
2023/06/22 03:28:03;;;;;;;11.63;8.05;;;;;;;23.37;53.02;99743.63;10360629;28;20317;-66
2023/06/22 03:33:05;;;;;;;10.27;8.27;;;;;;;21.96;55.10;99799.66;10349982;28;20601;-67
2023/06/22 03:38:07;;;;;;;9.77;8.77;;;;;;;22.53;54.62;99754.53;10351972;28;20835;-68
2023/06/22 03:43:09;;;;;;;11.05;8.40;;;;;;;22.38;55.13;99765.31;10350578;28;20278;-68
2023/06/22 03:48:12;;;;;;;9.85;8.00;;;;;;;22.44;53.98;99775.19;10353954;28;20711;-68
2023/06/22 03:53:13;;;;;;;9.55;8.48;;;;;;;22.27;55.12;99750.84;10358855;28;20211;-67
2023/06/22 03:58:16;;;;;;;11.20;8.35;;;;;;;21.59;56.85;99763.13;10368030;28;20280;-67
2023/06/22 04:03:18;;;;;;;8.82;7.88;;;;;;;21.81;56.56;99750.47;10367128;28;20666;-67
2023/06/22 04:08:21;;;;;;;9.30;7.88;;;;;;;23.23;53.24;99727.78;10360386;28;20620;-67
2023/06/22 04:13:22;;;;;;;9.00;7.93;;;;;;;22.48;54.95;99728.03;10363174;28;20215;-67
2023/06/22 04:18:24;;;;;;;11.98;8.27;;;;;;;22.36;54.51;99757.41;10363109;28;20263;-67
2023/06/22 04:23:26;;;;;;;10.75;9.05;;;;;;;22.21;54.98;99760.06;10368343;28;20300;-67
2023/06/22 04:28:28;;;;;;;10.25;8.20;;;;;;;22.86;53.54;99745.13;10361886;28;20229;-67
2023/06/22 04:33:30;;;;;;;9.65;7.53;;;;;;;23.03;53.60;99733.16;10362053;28;20672;-66
2023/06/22 04:38:33;;;;;;;10.45;7.43;;;;;;;22.43;54.13;99757.97;10366598;28;20217;-68
2023/06/22 04:43:34;;;;;;;11.52;7.47;;;;;;;22.74;54.17;99740.97;10368547;28;20240;-67
2023/06/22 04:48:36;;;;;;;9.00;7.70;;;;;;;22.66;54.45;99745.88;10361110;28;20540;-67
2023/06/22 04:53:41;;;;;;;11.23;7.97;;;;;;;22.53;55.25;99717.16;10363259;28;20216;-67
2023/06/22 04:58:42;;;;;;;12.00;7.65;;;;;;;23.74;52.64;99718.00;10361384;28;20687;-68
2023/06/22 05:05:22;;;;;;;10.13;7.93;;;;;;;22.84;54.63;99705.53;10558672;27;20840;-66
2023/06/22 05:10:24;;;;;;;11.95;8.38;;;;;;;22.78;55.05;99706.63;10555177;28;20680;-65
2023/06/22 05:15:30;;;;;;;11.25;8.02;;;;;;;22.64;55.99;99684.47;10553129;28;20244;-66
2023/06/22 05:20:34;;;;;;;10.15;8.35;;;;;;;21.77;56.10;99715.59;10557550;28;20225;-66
2023/06/22 05:25:35;;;;;;;11.82;8.20;;;;;;;21.57;56.95;99712.72;10545932;27;20644;-66
2023/06/22 05:30:38;;;;;;;9.90;8.00;;;;;;;23.00;54.38;99677.22;10555603;28;20358;-66
2023/06/22 05:35:40;;;;;;;11.15;8.65;;;;;;;23.18;54.82;99661.44;10556305;28;20233;-65
2023/06/22 05:40:41;;;;;;;10.88;8.52;;;;;;;22.79;54.43;99684.56;10554625;28;20210;-67
2023/06/22 05:45:43;;;;;;;10.55;8.32;;;;;;;22.34;55.67;99696.91;10552659;28;20222;-65
2023/06/22 05:50:45;;;;;;;9.07;7.88;;;;;;;23.72;53.42;99673.72;10551378;28;20210;-66
2023/06/22 05:55:47;;;;;;;8.93;7.40;;;;;;;23.80;53.74;99663.06;10554110;28;20218;-66
2023/06/22 06:00:49;;;;;;;7.95;7.15;;;;;;;23.45;54.24;99683.03;10549666;28;20244;-66
2023/06/22 06:05:51;;;;;;;8.82;7.93;;;;;;;23.71;53.67;99656.53;10552852;28;20230;-66
2023/06/22 06:10:53;;;;;;;13.02;8.38;;;;;;;23.91;54.09;99658.38;10556407;28;20258;-65
2023/06/22 06:15:56;;;;;;;10.48;7.82;;;;;;;21.99;56.83;99714.69;10527334;28;20231;-66
2023/06/22 06:20:58;;;;;;;9.55;8.43;;;;;;;23.29;54.49;99681.38;10524467;28;20222;-67
2023/06/22 06:26:01;;;;;;;9.55;7.75;;;;;;;22.63;56.04;99693.78;10526336;28;20233;-65
2023/06/22 06:31:06;;;;;;;9.13;7.78;;;;;;;24.39;52.25;99663.44;10526093;28;20202;-67
2023/06/22 06:36:08;;;;;;;9.07;7.43;;;;;;;24.74;51.73;99659.72;10526667;28;20226;-66
2023/06/22 06:41:10;;;;;;;9.20;7.47;;;;;;;24.97;51.42;99648.34;10523055;28;20239;-66
2023/06/22 06:46:12;;;;;;;10.98;8.38;;;;;;;23.50;53.17;99687.63;10527046;28;20569;-66
2023/06/22 06:51:14;;;;;;;11.60;7.47;;;;;;;24.26;52.21;99664.88;10523419;28;20613;-67
2023/06/22 06:56:16;;;;;;;8.63;7.72;;;;;;;24.67;51.85;99650.19;10521258;28;20233;-65
2023/06/22 07:01:19;;;;;;;9.27;7.90;;;;;;;24.94;51.25;99627.06;10518378;28;20618;-66
2023/06/22 07:06:27;;;;;;;10.23;8.00;;;;;;;23.30;52.92;99688.44;10521231;28;20222;-66
2023/06/22 07:11:29;;;;;;;8.70;7.43;;;;;;;24.06;51.58;99640.31;10522105;28;20209;-66
2023/06/22 07:16:31;;;;;;;9.38;7.90;;;;;;;24.32;52.28;99652.81;10517701;28;20645;-65
2023/06/22 07:21:33;;;;;;;10.85;7.13;;;;;;;26.39;48.79;99597.94;10519471;28;20257;-66
2023/06/22 07:26:34;;;;;;;8.75;7.43;;;;;;;24.61;51.91;99619.28;10519107;28;20389;-66
2023/06/22 07:31:36;;;;;;;10.23;7.80;;;;;;;24.81;51.16;99623.03;10518005;28;20886;-67
2023/06/22 07:36:39;;;;;;;11.38;7.45;;;;;;;26.44;49.28;99589.63;10520850;28;20891;-67
2023/06/22 07:41:40;;;;;;;10.45;7.25;;;;;;;25.42;50.73;99630.78;10518711;28;20230;-66
2023/06/22 07:46:42;;;;;;;9.85;7.35;;;;;;;25.15;51.12;99639.47;10523753;28;20231;-67
2023/06/22 07:51:44;;;;;;;13.48;8.00;;;;;;;24.73;52.33;99641.69;10520641;28;20377;-66
2023/06/22 07:56:46;;;;;;;9.05;7.15;;;;;;;25.53;50.43;99622.47;10522982;28;20645;-66
2023/06/22 08:01:49;;;;;;;13.15;7.68;;;;;;;25.24;50.49;99639.72;10518257;28;20242;-66
2023/06/22 08:06:50;;;;;;;10.18;7.53;;;;;;;25.97;49.57;99619.53;10520104;28;20227;-67
2023/06/22 08:11:52;;;;;;;8.95;7.05;;;;;;;26.87;48.51;99627.16;10518959;28;20199;-66
2023/06/22 08:16:54;;;;;;;9.82;7.28;;;;;;;26.20;49.39;99661.75;10521324;28;20236;-67
2023/06/22 08:21:57;;;;;;;8.50;7.25;;;;;;;27.22;47.25;99660.69;10518220;28;20606;-67
2023/06/22 08:26:59;;;;;;;13.60;6.82;;;;;;;27.35;47.45;99675.59;10519439;28;20223;-66
2023/06/22 08:32:01;;;;;;;7.55;6.47;;;;;;;27.25;47.05;99655.41;10517961;28;20211;-67
2023/06/22 08:37:06;;;;;;;9.55;6.63;;;;;;;26.37;47.80;99694.22;10518682;28;20232;-67
2023/06/22 08:42:08;;;;;;;10.10;7.25;;;;;;;27.84;46.01;99627.44;10522007;28;20708;-67
2023/06/22 08:47:09;;;;;;;8.13;6.80;;;;;;;26.82;47.73;99639.03;10518585;28;20226;-67
2023/06/22 08:52:11;;;;;;;8.90;6.90;;;;;;;26.78;47.27;99645.44;10517032;28;20202;-66
2023/06/22 08:57:13;;;;;;;9.05;7.25;;;;;;;28.11;45.55;99623.88;10515700;28;20240;-66
2023/06/22 09:02:15;;;;;;;9.60;6.47;;;;;;;27.26;46.16;99635.06;10517002;28;20234;-67
2023/06/22 09:07:22;;;;;;;9.13;6.90;;;;;;;27.71;46.02;99625.50;10515152;28;20233;-66
2023/06/22 09:12:26;;;;;;;10.80;6.70;;;;;;;27.75;45.19;99626.50;10513890;28;20195;-66
2023/06/22 09:17:28;;;;;;;12.40;6.60;;;;;;;27.99;43.83;99599.63;10517485;28;20789;-67
2023/06/22 09:22:30;;;;;;;9.73;6.53;;;;;;;29.37;43.33;99550.75;10517948;28;20257;-66
2023/06/22 09:27:32;;;;;;;7.32;5.68;;;;;;;27.48;45.35;99560.22;10518946;28;20226;-66
2023/06/22 09:32:34;;;;;;;8.50;6.35;;;;;;;28.97;43.25;99536.91;10519301;28;20210;-67
2023/06/22 09:37:36;;;;;;;6.60;4.93;;;;;;;29.44;41.69;99526.31;10516810;28;20233;-66
2023/06/22 09:42:38;;;;;;;10.13;5.68;;;;;;;29.85;41.51;99511.34;10517753;28;20238;-66
2023/06/22 09:47:40;;;;;;;10.18;5.85;;;;;;;28.78;41.84;99510.41;10517984;28;20354;-66
2023/06/22 09:52:44;;;;;;;8.90;4.60;;;;;;;28.73;41.26;99501.47;10527888;28;20283;-68
2023/06/22 09:57:49;;;;;;;8.98;5.28;;;;;;;29.67;40.03;99493.97;10524083;28;20605;-66
2023/06/22 10:02:51;;;;;;;8.10;5.88;;;;;;;29.53;41.41;99479.47;10522263;28;20230;-67
2023/06/22 10:07:53;;;;;;;10.77;6.45;;;;;;;30.06;41.77;99480.41;10526295;28;20241;-67
2023/06/22 10:12:57;;;;;;;7.35;5.72;;;;;;;29.79;41.94;99492.53;10522820;28;20199;-66
2023/06/22 10:17:59;;;;;;;8.00;5.70;;;;;;;30.12;40.74;99453.50;10523765;28;20234;-67
2023/06/22 10:23:00;;;;;;;8.02;5.20;;;;;;;29.97;41.26;99465.78;10521780;28;20690;-67
2023/06/22 10:28:02;;;;;;;7.78;5.35;;;;;;;30.11;40.21;99449.91;10520994;28;20238;-67
2023/06/22 10:33:04;;;;;;;9.15;5.20;;;;;;;30.37;40.34;99429.78;10526582;28;20677;-67
2023/06/22 10:38:06;;;;;;;9.65;5.10;;;;;;;30.11;40.49;99435.31;10523185;28;20234;-67
2023/06/22 10:43:08;;;;;;;8.02;5.60;;;;;;;29.67;41.78;99440.78;10520606;28;21093;-66
2023/06/22 10:48:10;;;;;;;10.30;5.60;;;;;;;30.18;41.05;99417.13;10520870;28;20307;-67
2023/06/22 10:53:12;;;;;;;7.18;5.30;;;;;;;29.90;40.58;99471.78;10523295;28;20521;-67
2023/06/22 10:58:14;;;;;;;8.23;5.30;;;;;;;31.06;40.10;99439.03;10523453;28;20226;-67
2023/06/22 11:06:22;;;;;;;8.90;6.63;;;;;;;26.35;47.79;99430.41;10434474;28;20865;-66
2023/06/22 11:11:25;;;;;;;9.57;6.75;;;;;;;27.83;45.11;99441.63;10443023;28;20228;-66
2023/06/22 11:16:27;;;;;;;10.40;5.90;;;;;;;28.89;44.28;99431.09;10439012;28;20236;-67
2023/06/22 11:21:29;;;;;;;8.85;5.60;;;;;;;27.54;45.81;99448.28;10433188;28;20986;-66
2023/06/22 11:26:31;;;;;;;7.72;5.85;;;;;;;28.28;44.58;99427.16;10435277;28;20277;-66
2023/06/22 11:31:34;;;;;;;12.40;5.93;;;;;;;27.75;47.52;99429.44;10439637;28;20900;-66
2023/06/22 11:36:36;;;;;;;12.13;6.60;;;;;;;29.11;43.64;99437.66;10440146;28;20404;-66
2023/06/22 11:41:38;;;;;;;12.98;5.78;;;;;;;28.23;44.90;99467.41;10434322;28;20273;-66
2023/06/22 11:46:40;;;;;;;8.35;5.93;;;;;;;28.35;45.10;99472.34;10422440;28;20267;-66
2023/06/22 11:51:41;;;;;;;8.77;5.57;;;;;;;27.22;45.07;99476.69;10435789;28;20269;-66
2023/06/22 11:56:43;;;;;;;12.02;5.93;;;;;;;27.86;44.20;99460.25;10428825;28;20263;-67
2023/06/22 12:01:46;;;;;;;7.32;5.75;;;;;;;29.12;43.06;99462.16;10425835;28;20750;-67
2023/06/22 12:06:47;;;;;;;8.55;5.95;;;;;;;29.88;41.95;99466.59;10432011;28;20225;-67
2023/06/22 12:11:49;;;;;;;9.60;5.20;;;;;;;28.92;43.31;99501.25;10436358;28;20205;-66
2023/06/22 12:16:51;;;;;;;9.90;6.32;;;;;;;28.86;44.01;99477.72;10405597;28;20236;-66
2023/06/22 12:21:53;;;;;;;7.78;6.30;;;;;;;29.70;42.42;99473.22;10408257;28;20229;-67
2023/06/22 12:26:54;;;;;;;9.63;6.50;;;;;;;29.16;43.63;99498.16;10409777;28;20256;-67
2023/06/22 12:31:57;;;;;;;7.97;6.50;;;;;;;28.74;43.51;99508.56;10405303;28;20203;-66
2023/06/22 12:36:58;;;;;;;10.73;6.40;;;;;;;29.71;41.56;99469.34;10402758;28;20318;-67
2023/06/22 12:42:00;;;;;;;8.52;6.45;;;;;;;30.11;41.86;99462.88;10403863;28;20228;-66
2023/06/22 12:47:02;;;;;;;11.15;6.13;;;;;;;30.28;41.61;99475.88;10402193;28;20223;-67
2023/06/22 12:52:13;;;;;;;7.50;5.47;;;;;;;29.98;42.45;99486.72;10403289;28;20667;-67
2023/06/22 12:57:15;;;;;;;13.00;5.65;;;;;;;29.60;42.50;99479.84;10403454;28;22293;-66
2023/06/22 13:02:17;;;;;;;7.57;5.65;;;;;;;29.23;42.53;99497.69;10403934;28;20244;-67
2023/06/22 13:07:19;;;;;;;10.45;5.40;;;;;;;30.19;41.89;99456.56;10416331;28;20315;-66
2023/06/22 13:12:24;;;;;;;10.82;6.13;;;;;;;30.60;41.63;99456.06;10397157;28;20232;-66
2023/06/22 13:17:26;;;;;;;11.55;5.85;;;;;;;29.59;41.49;99480.16;10393487;28;20311;-66
2023/06/22 13:22:29;;;;;;;11.10;6.22;;;;;;;29.21;42.30;99453.94;10410676;28;20228;-67
2023/06/22 13:27:30;;;;;;;10.70;6.07;;;;;;;29.97;41.15;99443.72;10407279;28;20284;-67
2023/06/22 13:32:32;;;;;;;10.35;5.40;;;;;;;30.02;40.78;99438.84;10403994;28;20208;-67
2023/06/22 13:37:34;;;;;;;9.60;4.80;;;;;;;30.08;41.80;99431.25;10400790;28;20225;-67
2023/06/22 13:42:36;;;;;;;8.38;5.25;;;;;;;29.18;42.69;99451.00;10412531;28;20644;-67
2023/06/22 13:47:37;;;;;;;11.05;5.60;;;;;;;29.06;41.71;99446.06;10404453;28;20239;-67
2023/06/22 13:52:40;;;;;;;9.13;5.15;;;;;;;28.81;42.53;99486.09;10406063;28;20756;-67
2023/06/22 13:57:42;;;;;;;12.18;5.50;;;;;;;29.18;41.03;99453.75;10400883;28;20801;-66
2023/06/22 14:02:44;;;;;;;9.02;5.53;;;;;;;29.21;41.94;99448.41;10401756;28;20447;-66
2023/06/22 14:07:46;;;;;;;17.67;6.68;;;;;;;26.25;50.50;99479.94;10402691;28;20715;-67
2023/06/22 14:12:48;;;;;;;17.23;7.88;;;;;;;26.14;52.18;99375.03;10414918;28;20278;-67
2023/06/22 14:17:50;;;;;;;11.18;5.82;;;;;;;26.47;51.15;99385.22;10409310;28;20715;-66
2023/06/22 14:22:51;;;;;;;14.38;6.00;;;;;;;25.28;54.18;99411.56;10399681;28;20227;-67
2023/06/22 14:27:53;;;;;;;10.00;4.80;;;;;;;26.01;52.36;99425.13;10401986;28;20286;-67
2023/06/22 14:32:55;;;;;;;8.43;4.78;;;;;;;29.02;48.11;99404.59;10396043;28;20311;-66
2023/06/22 14:37:57;;;;;;;8.68;4.88;;;;;;;28.35;50.16;99413.75;10402683;28;20228;-66
2023/06/22 14:42:58;;;;;;;12.52;5.70;;;;;;;27.54;51.57;99412.56;10398211;28;20216;-67
2023/06/22 14:48:00;;;;;;;8.57;5.53;;;;;;;28.53;50.64;99373.41;10400266;28;20607;-66
2023/06/22 14:53:02;;;;;;;12.50;6.90;;;;;;;28.49;49.95;99365.00;10402295;28;20216;-65
2023/06/22 14:58:04;;;;;;;14.02;8.32;;;;;;;27.70;51.66;99363.59;10398485;28;20239;-67
2023/06/22 15:03:07;;;;;;;13.10;7.50;;;;;;;28.66;50.27;99353.28;10400458;28;20672;-66
2023/06/22 15:08:09;;;;;;;12.40;8.35;;;;;;;28.62;50.34;99357.75;10395926;28;20225;-67
2023/06/22 15:13:12;;;;;;;14.73;8.32;;;;;;;29.03;50.97;99345.59;10396696;28;20291;-66
2023/06/22 15:18:15;;;;;;;13.15;8.13;;;;;;;27.97;50.08;99379.19;10407287;28;20240;-66
2023/06/22 15:23:17;;;;;;;11.95;7.72;;;;;;;28.64;49.35;99374.75;10405701;28;20242;-65
2023/06/22 15:28:18;;;;;;;11.38;7.60;;;;;;;28.39;49.86;99376.22;10399355;28;20290;-65
2023/06/22 15:33:20;;;;;;;9.20;7.43;;;;;;;29.01;49.00;99366.34;10396234;28;20718;-66
2023/06/22 15:38:22;;;;;;;10.00;7.28;;;;;;;28.18;50.11;99381.44;10404876;28;20302;-65
2023/06/22 15:43:24;;;;;;;10.30;6.57;;;;;;;28.33;47.63;99372.81;10403353;28;20224;-66
2023/06/22 15:48:25;;;;;;;11.00;5.95;;;;;;;28.40;48.26;99378.66;10397410;28;20273;-65
2023/06/22 15:53:28;;;;;;;9.15;5.82;;;;;;;28.68;47.35;99356.53;10398358;28;20232;-66
2023/06/22 15:58:30;;;;;;;11.25;6.57;;;;;;;29.49;45.62;99322.22;10401521;28;20224;-66
2023/06/22 16:03:32;;;;;;;9.90;5.50;;;;;;;29.63;44.59;99319.31;10400749;28;20236;-66
2023/06/22 16:08:33;;;;;;;8.77;5.22;;;;;;;29.96;44.14;99306.94;10406227;28;20228;-66
2023/06/22 16:13:35;;;;;;;9.88;4.65;;;;;;;29.04;44.75;99305.94;10402697;28;20205;-67
2023/06/22 16:18:37;;;;;;;9.57;4.88;;;;;;;28.92;44.18;99301.03;10407262;28;20240;-66
2023/06/22 16:23:39;;;;;;;10.23;4.55;;;;;;;28.94;44.62;99297.97;10403143;28;20323;-67
2023/06/22 16:28:41;;;;;;;12.35;4.30;;;;;;;27.96;44.15;99297.00;10406464;28;20239;-66
2023/06/22 16:33:46;;;;;;;10.60;3.97;;;;;;;29.02;43.34;99280.66;10404162;28;20205;-67
2023/06/22 16:38:50;;;;;;;11.07;4.35;;;;;;;28.07;44.26;99314.88;10405065;28;20232;-67
2023/06/22 16:43:51;;;;;;;8.70;3.75;;;;;;;29.23;43.13;99291.06;10398997;28;20229;-67
2023/06/22 16:48:53;;;;;;;10.38;4.07;;;;;;;28.08;43.25;99326.69;10401271;28;20248;-66
2023/06/22 16:53:55;;;;;;;10.82;3.53;;;;;;;27.59;43.41;99345.69;10398155;28;20204;-66
2023/06/22 16:58:58;;;;;;;8.18;3.25;;;;;;;27.02;41.39;99357.06;10405135;28;20236;-67
2023/06/22 17:04:10;;;;;;;8.13;3.20;;;;;;;27.53;38.56;99339.50;10404907;28;20319;-66
2023/06/22 17:09:14;;;;;;;7.50;2.97;;;;;;;27.64;38.50;99332.63;10407876;28;20227;-66
2023/06/22 17:14:15;;;;;;;7.18;3.17;;;;;;;27.94;38.53;99344.06;10414664;28;20192;-66
2023/06/22 17:19:18;;;;;;;8.82;3.00;;;;;;;27.76;38.75;99373.34;10403033;28;20815;-67
2023/06/22 17:24:20;;;;;;;5.57;2.60;;;;;;;28.32;38.63;99340.13;10401981;28;20584;-66
2023/06/22 17:29:32;;;;;;;7.45;2.95;;;;;;;27.13;39.59;99355.72;10394917;28;20757;-66
2023/06/22 17:34:35;;;;;;;6.88;3.38;;;;;;;27.39;39.17;99331.28;10404908;28;20617;-66
2023/06/22 17:39:38;;;;;;;6.60;3.15;;;;;;;27.33;39.15;99326.22;10404498;28;20259;-67
2023/06/22 17:44:41;;;;;;;10.90;3.80;;;;;;;25.84;40.57;99341.56;10399962;28;20244;-66
2023/06/22 17:49:43;;;;;;;6.50;2.83;;;;;;;26.23;39.86;99342.28;10410095;28;20472;-65
2023/06/22 17:54:44;;;;;;;4.68;3.05;;;;;;;26.18;40.40;99343.19;10399104;28;20682;-66
2023/06/22 18:00:10;;;;;;;7.03;2.78;;;;;;;26.79;40.17;99334.16;10398898;28;20228;-66
2023/06/22 18:05:12;;;;;;;6.53;2.90;;;;;;;26.21;41.33;99326.13;10399705;28;20321;-66
2023/06/22 18:10:14;;;;;;;8.27;3.00;;;;;;;26.53;40.46;99349.16;10401385;28;20209;-66
2023/06/22 18:15:16;;;;;;;6.18;3.00;;;;;;;26.94;40.83;99340.19;10395173;28;20741;-66
2023/06/22 18:20:21;;;;;;;10.40;2.78;;;;;;;27.48;40.33;99331.34;10396661;28;20272;-66
2023/06/22 18:25:24;;;;;;;6.78;2.92;;;;;;;26.55;41.70;99357.09;10398763;28;20220;-66
2023/06/22 18:30:27;;;;;;;7.00;2.92;;;;;;;26.90;41.21;99349.31;10395884;28;20310;-66
2023/06/22 18:35:29;;;;;;;4.18;2.60;;;;;;;26.95;41.70;99355.53;10388702;28;20323;-67
2023/06/22 18:40:31;;;;;;;5.38;2.90;;;;;;;25.90;43.19;99371.63;10392526;28;20216;-66
2023/06/22 18:45:34;;;;;;;7.43;2.75;;;;;;;25.94;43.37;99375.38;10398663;28;20239;-66
2023/06/22 18:50:45;;;;;;;6.93;2.22;;;;;;;24.85;46.02;99386.03;10396117;28;20213;-66
2023/06/22 18:55:50;;;;;;;4.70;1.58;;;;;;;25.71;45.52;99390.75;10389170;28;20406;-67
2023/06/22 19:01:16;;;;;;;1.55;1.40;;;;;;;24.32;47.34;99417.69;10398590;28;20212;-66
2023/06/22 19:06:54;;;;;;;3.95;1.45;;;;;;;23.69;47.46;99437.47;10393127;28;20244;-66
2023/06/22 19:12:15;;;;;;;3.83;2.35;;;;;;;24.54;45.25;99419.97;10403966;28;20213;-68
2023/06/22 19:17:18;;;;;;;5.90;1.20;;;;;;;24.02;45.72;99417.88;10398579;28;20225;-67
2023/06/22 19:22:42;;;;;;;3.65;1.23;;;;;;;24.25;45.45;99380.84;10403580;28;20437;-66
2023/06/22 19:27:50;;;;;;;2.05;1.30;;;;;;;23.48;46.86;99392.22;10395426;28;20658;-67
2023/06/22 19:32:52;;;;;;;4.07;0.90;;;;;;;22.95;47.18;99411.78;10402520;28;20609;-66
2023/06/22 19:37:54;;;;;;;1.30;1.20;;;;;;;22.68;47.55;99453.81;10404489;28;20323;-69
2023/06/22 19:42:56;;;;;;;1.48;1.23;;;;;;;23.07;46.75;99459.50;10411034;28;20679;-68
2023/06/22 19:47:58;;;;;;;1.30;1.20;;;;;;;23.31;47.37;99488.09;10407510;28;20228;-68
2023/06/22 19:53:00;;;;;;;2.45;1.20;;;;;;;22.66;49.02;99511.34;10400256;28;20694;-68
2023/06/22 19:58:02;;;;;;;1.40;1.23;;;;;;;22.39;48.94;99560.63;10402135;28;20236;-68
2023/06/22 20:03:08;;;;;;;3.95;1.40;;;;;;;24.00;47.35;99577.50;10405180;28;20343;-68
2023/06/22 20:08:15;;;;;;;2.30;1.40;;;;;;;23.82;47.12;99630.00;10408904;28;20228;-68
2023/06/22 20:13:21;;;;;;;5.00;1.60;;;;;;;24.04;46.74;99672.56;10398873;28;20673;-68
2023/06/22 20:18:22;;;;;;;2.05;1.25;;;;;;;23.72;47.46;99704.59;10400330;28;20363;-67
2023/06/22 20:23:24;;;;;;;1.60;1.33;;;;;;;24.17;47.21;99682.94;10411451;28;20278;-67
2023/06/22 20:28:26;;;;;;;2.97;1.50;;;;;;;22.28;51.10;99722.47;10408284;28;20252;-67
2023/06/22 20:33:28;;;;;;;3.90;1.58;;;;;;;22.60;50.80;99697.03;10390827;28;20220;-67
2023/06/22 20:38:33;;;;;;;2.75;1.48;;;;;;;23.53;48.93;99692.56;10408746;28;20237;-66
2023/06/22 20:43:34;;;;;;;2.47;1.60;;;;;;;22.76;49.39;99731.44;10403666;28;20225;-67
2023/06/22 20:48:36;;;;;;;3.95;1.70;;;;;;;22.50;52.20;99715.00;10406958;28;20225;-67
2023/06/22 20:53:40;;;;;;;3.22;1.80;;;;;;;22.94;51.54;99729.31;10402359;28;20606;-66
2023/06/22 20:58:42;;;;;;;2.92;1.67;;;;;;;22.69;53.16;99720.78;10404314;28;20418;-67
2023/06/22 21:03:43;;;;;;;3.97;2.03;;;;;;;22.88;52.58;99702.00;10408350;28;20306;-67
2023/06/22 21:08:45;;;;;;;3.38;2.00;;;;;;;22.99;52.95;99689.19;10402169;28;20238;-67
2023/06/22 21:13:47;;;;;;;2.35;2.00;;;;;;;23.79;50.87;99687.94;10405525;28;20223;-67
2023/06/22 21:18:49;;;;;;;3.38;1.67;;;;;;;22.15;54.36;99686.44;10402400;28;20221;-67
2023/06/22 21:23:51;;;;;;;3.55;2.08;;;;;;;23.08;51.94;99695.00;10400769;28;20252;-67
2023/06/22 21:28:52;;;;;;;2.97;1.90;;;;;;;23.61;50.63;99720.16;10403375;28;20237;-67
2023/06/22 21:33:54;;;;;;;4.72;2.55;;;;;;;23.72;51.05;99723.72;10407321;28;20299;-66
2023/06/22 21:38:56;;;;;;;2.45;1.80;;;;;;;23.00;52.14;99748.16;10401686;28;20298;-68
2023/06/22 21:43:58;;;;;;;2.60;2.05;;;;;;;21.79;54.93;99773.34;10400344;28;20341;-66
2023/06/22 21:48:59;;;;;;;4.10;2.30;;;;;;;22.66;52.67;99750.50;10394076;28;20236;-66
2023/06/22 21:54:01;;;;;;;2.50;2.08;;;;;;;22.60;53.50;99730.56;10393891;28;20213;-68
2023/06/22 21:59:03;;;;;;;2.38;2.10;;;;;;;22.48;53.65;99741.66;10401557;28;20281;-66
2023/06/22 22:04:06;;;;;;;2.13;1.90;;;;;;;22.63;53.14;99764.66;10406146;28;20272;-66
2023/06/22 22:09:08;;;;;;;3.55;2.42;;;;;;;21.79;55.32;99784.22;10400087;28;20235;-66
2023/06/22 22:14:10;;;;;;;3.45;2.10;;;;;;;23.13;52.58;99765.13;10395921;28;20200;-67
2023/06/22 22:19:14;;;;;;;3.75;2.47;;;;;;;21.82;54.91;99818.31;10405757;28;20228;-66
2023/06/22 22:24:16;;;;;;;4.60;2.88;;;;;;;23.13;52.53;99765.97;10400532;28;20220;-67
2023/06/22 22:29:18;;;;;;;3.80;2.95;;;;;;;20.99;56.54;99803.00;10395008;28;20235;-67
2023/06/22 22:34:19;;;;;;;4.95;2.88;;;;;;;21.82;55.07;99814.78;10391542;28;20278;-65
2023/06/22 22:39:30;;;;;;;3.72;3.38;;;;;;;21.28;55.95;99830.00;10397203;28;20225;-65
2023/06/22 22:44:32;;;;;;;4.38;3.97;;;;;;;21.29;56.92;99796.28;10403117;28;20229;-67
2023/06/22 22:49:34;;;;;;;4.85;3.85;;;;;;;22.16;54.05;99826.22;10401308;28;20330;-65
2023/06/22 22:54:36;;;;;;;3.80;3.40;;;;;;;22.38;53.79;99808.94;10399122;28;20266;-67
2023/06/22 22:59:39;;;;;;;4.10;3.70;;;;;;;21.89;54.05;99839.88;10397926;28;20243;-67
2023/06/22 23:04:40;;;;;;;5.05;4.05;;;;;;;22.72;53.11;99793.06;10407454;28;20262;-66
2023/06/22 23:09:42;;;;;;;4.75;4.28;;;;;;;21.28;55.94;99851.75;10401682;28;20240;-67
2023/06/22 23:14:44;;;;;;;5.28;4.03;;;;;;;22.45;53.51;99825.88;10401459;28;20215;-67
2023/06/22 23:19:46;;;;;;;5.00;3.65;;;;;;;23.12;52.47;99810.72;10397866;28;20233;-65
2023/06/22 23:24:48;;;;;;;5.85;4.80;;;;;;;21.28;56.03;99859.94;10408906;28;20217;-67